createdAt,value
2019-02-28T00:01:14.808Z,9.94
2019-02-28T00:03:14.845Z,9.94
2019-02-28T00:05:14.838Z,9.94
2019-02-28T00:07:17.435Z,9.94
2019-02-28T00:09:15.699Z,9.94
2019-02-28T00:11:14.989Z,9.88
2019-02-28T00:11:31.799Z,9.88
2019-02-28T00:13:14.831Z,9.88
2019-02-28T00:15:14.820Z,9.88
2019-02-28T00:17:14.840Z,9.94
2019-02-28T00:19:14.847Z,9.94
2019-02-28T00:21:14.865Z,9.88
2019-02-28T00:23:14.950Z,9.88
2019-02-28T00:25:14.834Z,9.81
2019-02-28T00:26:31.816Z,9.81
2019-02-28T00:27:14.829Z,9.81
2019-02-28T00:29:14.858Z,9.81
2019-02-28T00:31:15.424Z,9.75
2019-02-28T00:33:14.855Z,9.69
2019-02-28T00:35:14.844Z,9.69
2019-02-28T00:37:14.859Z,9.69
2019-02-28T00:39:14.840Z,9.63
2019-02-28T00:41:14.825Z,9.63
2019-02-28T00:41:31.766Z,9.63
2019-02-28T00:43:14.891Z,9.63
2019-02-28T00:45:14.834Z,9.63
2019-02-28T00:47:16.388Z,9.56
2019-02-28T00:49:14.825Z,9.56
2019-02-28T00:51:14.878Z,9.56
2019-02-28T00:53:14.799Z,9.5
2019-02-28T00:55:15.464Z,9.44
2019-02-28T00:56:31.811Z,9.44
2019-02-28T00:57:14.865Z,9.44
2019-02-28T00:59:14.852Z,9.38
2019-02-28T01:01:14.864Z,9.38
2019-02-28T01:03:14.833Z,9.38
2019-02-28T01:05:14.898Z,9.38
2019-02-28T01:07:16.121Z,9.38
2019-02-28T01:09:14.846Z,9.31
2019-02-28T01:11:14.877Z,9.25
2019-02-28T01:11:31.779Z,9.25
2019-02-28T01:13:14.958Z,9.25
2019-02-28T01:15:14.845Z,9.19
2019-02-28T01:17:14.845Z,9.19
2019-02-28T01:19:14.795Z,9.19
2019-02-28T01:21:14.866Z,9.19
2019-02-28T01:23:14.837Z,9.13
2019-02-28T01:25:14.833Z,9.13
2019-02-28T01:26:32.690Z,9.06
2019-02-28T01:27:17.259Z,9.06
2019-02-28T01:29:14.860Z,9.06
2019-02-28T01:31:15.853Z,9
2019-02-28T01:33:14.960Z,8.94
2019-02-28T01:35:14.829Z,8.88
2019-02-28T01:37:14.838Z,8.88
2019-02-28T01:39:14.837Z,8.88
2019-02-28T01:41:14.832Z,8.88
2019-02-28T01:41:32.659Z,8.88
2019-02-28T01:43:14.806Z,8.81
2019-02-28T01:45:14.858Z,8.75
2019-02-28T01:47:14.834Z,8.69
2019-02-28T01:49:14.835Z,8.69
2019-02-28T01:51:14.853Z,8.63
2019-02-28T01:53:18.418Z,8.63
2019-02-28T01:55:14.909Z,8.63
2019-02-28T01:56:34.211Z,8.63
2019-02-28T01:57:14.835Z,8.56
2019-02-28T01:59:14.822Z,8.56
2019-02-28T02:01:14.837Z,8.56
2019-02-28T02:03:14.861Z,8.5
2019-02-28T02:05:16.813Z,8.5
2019-02-28T02:07:14.854Z,8.44
2019-02-28T02:09:14.812Z,8.5
2019-02-28T02:11:14.824Z,8.5
2019-02-28T02:11:31.779Z,8.5
2019-02-28T02:13:14.860Z,8.44
2019-02-28T02:15:16.767Z,8.44
2019-02-28T02:17:14.854Z,8.44
2019-02-28T02:19:18.433Z,8.38
2019-02-28T02:21:14.886Z,8.44
2019-02-28T02:23:17.615Z,8.44
2019-02-28T02:25:14.847Z,8.44
2019-02-28T02:26:31.745Z,8.38
2019-02-28T02:27:16.198Z,8.44
2019-02-28T02:29:14.807Z,8.38
2019-02-28T02:31:14.805Z,8.38
2019-02-28T02:33:15.757Z,8.31
2019-02-28T02:35:14.859Z,8.31
2019-02-28T02:37:14.841Z,8.25
2019-02-28T02:39:17.472Z,8.31
2019-02-28T02:41:14.775Z,8.25
2019-02-28T02:41:33.245Z,8.25
2019-02-28T02:43:14.849Z,8.25
2019-02-28T02:45:14.882Z,8.19
2019-02-28T02:47:14.761Z,8.19
2019-02-28T02:49:18.824Z,8.19
2019-02-28T02:51:14.774Z,8.13
2019-02-28T02:53:14.889Z,8.13
2019-02-28T02:55:14.859Z,8.13
2019-02-28T02:56:31.808Z,8.19
2019-02-28T02:57:15.720Z,8.13
2019-02-28T02:59:14.814Z,8.13
2019-02-28T03:01:14.765Z,8.06
2019-02-28T03:03:14.835Z,8.13
2019-02-28T03:05:14.914Z,8.13
2019-02-28T03:07:22.883Z,8.13
2019-02-28T03:09:14.866Z,8.13
2019-02-28T03:11:14.829Z,8.06
2019-02-28T03:11:31.791Z,8.06
2019-02-28T03:13:14.787Z,8.06
2019-02-28T03:15:14.849Z,8.06
2019-02-28T03:17:14.790Z,8.06
2019-02-28T03:19:14.810Z,8
2019-02-28T03:21:15.480Z,8
2019-02-28T03:23:14.837Z,8
2019-02-28T03:25:14.835Z,8.06
2019-02-28T03:26:31.833Z,8
2019-02-28T03:27:18.853Z,8
2019-02-28T03:29:14.878Z,7.94
2019-02-28T03:31:15.728Z,7.94
2019-02-28T03:33:23.261Z,7.94
2019-02-28T03:35:14.823Z,7.94
2019-02-28T03:37:14.856Z,7.94
2019-02-28T03:39:14.850Z,8
2019-02-28T03:41:17.607Z,8
2019-02-28T03:41:31.762Z,8
2019-02-28T03:43:14.786Z,7.94
2019-02-28T03:45:14.875Z,8
2019-02-28T03:47:14.851Z,7.94
2019-02-28T03:49:14.862Z,8
2019-02-28T03:51:14.832Z,7.94
2019-02-28T03:53:19.202Z,7.94
2019-02-28T03:55:15.811Z,7.94
2019-02-28T03:56:31.831Z,7.94
2019-02-28T03:57:14.819Z,7.88
2019-02-28T03:59:18.727Z,7.88
2019-02-28T04:01:14.865Z,7.88
2019-02-28T04:03:14.852Z,7.88
2019-02-28T04:05:14.919Z,7.94
2019-02-28T04:07:15.947Z,7.88
2019-02-28T04:09:14.854Z,7.81
2019-02-28T04:11:16.203Z,7.81
2019-02-28T04:11:32.706Z,7.81
2019-02-28T04:13:19.118Z,7.88
2019-02-28T04:15:14.850Z,7.81
2019-02-28T04:17:14.817Z,7.81
2019-02-28T04:19:21.039Z,7.81
2019-02-28T04:21:14.855Z,7.81
2019-02-28T04:23:14.878Z,7.81
2019-02-28T04:25:14.863Z,7.75
2019-02-28T04:26:31.850Z,7.75
2019-02-28T04:27:14.861Z,7.69
2019-02-28T04:29:14.897Z,7.75
2019-02-28T04:31:18.302Z,7.69
2019-02-28T04:33:14.842Z,7.69
2019-02-28T04:35:14.817Z,7.69
2019-02-28T04:37:14.845Z,7.63
2019-02-28T04:39:14.764Z,7.63
2019-02-28T04:41:14.862Z,7.63
2019-02-28T04:41:32.818Z,7.63
2019-02-28T04:43:14.830Z,7.63
2019-02-28T04:45:14.839Z,7.63
2019-02-28T04:47:15.772Z,7.69
2019-02-28T04:49:15.861Z,7.63
2019-02-28T04:51:14.962Z,7.75
2019-02-28T04:53:14.858Z,7.75
2019-02-28T04:55:14.848Z,7.69
2019-02-28T04:56:31.795Z,7.69
2019-02-28T04:57:17.275Z,7.75
2019-02-28T04:59:15.797Z,7.75
2019-02-28T05:01:14.847Z,7.75
2019-02-28T05:03:14.864Z,7.75
2019-02-28T05:05:15.823Z,7.75
2019-02-28T05:07:14.858Z,7.75
2019-02-28T05:09:15.195Z,7.69
2019-02-28T05:11:14.864Z,7.69
2019-02-28T05:11:33.569Z,7.69
2019-02-28T05:13:14.992Z,7.69
2019-02-28T05:15:14.860Z,7.75
2019-02-28T05:17:14.851Z,7.75
2019-02-28T05:19:15.643Z,7.75
2019-02-28T05:21:16.463Z,7.75
2019-02-28T05:23:14.836Z,7.75
2019-02-28T05:25:17.984Z,7.75
2019-02-28T05:26:31.837Z,7.75
2019-02-28T05:27:14.788Z,7.69
2019-02-28T05:29:14.868Z,7.69
2019-02-28T05:31:14.833Z,7.69
2019-02-28T05:33:14.844Z,7.69
2019-02-28T05:35:14.828Z,7.63
2019-02-28T05:37:15.836Z,7.63
2019-02-28T05:39:14.849Z,7.63
2019-02-28T05:41:15.250Z,7.63
2019-02-28T05:41:32.664Z,7.56
2019-02-28T05:43:14.849Z,7.63
2019-02-28T05:45:15.659Z,7.69
2019-02-28T05:47:14.864Z,7.63
2019-02-28T05:49:14.826Z,7.63
2019-02-28T05:51:14.870Z,7.63
2019-02-28T05:53:14.857Z,7.56
2019-02-28T05:55:14.890Z,7.56
2019-02-28T05:56:33.092Z,7.56
2019-02-28T05:57:14.850Z,7.56
2019-02-28T05:59:14.828Z,7.56
2019-02-28T06:01:14.831Z,7.5
2019-02-28T06:03:14.822Z,7.56
2019-02-28T06:05:14.849Z,7.56
2019-02-28T06:07:14.844Z,7.5
2019-02-28T06:09:14.899Z,7.56
2019-02-28T06:11:15.365Z,7.56
2019-02-28T06:11:35.466Z,7.5
2019-02-28T06:13:15.265Z,7.56
2019-02-28T06:15:14.866Z,7.56
2019-02-28T06:17:17.289Z,7.56
2019-02-28T06:19:14.857Z,7.5
2019-02-28T06:21:14.828Z,7.5
2019-02-28T06:23:14.847Z,7.5
2019-02-28T06:25:21.973Z,7.44
2019-02-28T06:26:32.891Z,7.44
2019-02-28T06:27:14.847Z,7.44
2019-02-28T06:29:15.826Z,7.44
2019-02-28T06:31:15.745Z,7.44
2019-02-28T06:33:14.880Z,7.44
2019-02-28T06:35:17.184Z,7.38
2019-02-28T06:37:14.839Z,7.44
2019-02-28T06:39:14.847Z,7.44
2019-02-28T06:41:14.779Z,7.44
2019-02-28T06:41:31.788Z,7.44
2019-02-28T06:43:14.859Z,7.5
2019-02-28T06:45:14.826Z,7.5
2019-02-28T06:47:14.829Z,7.5
2019-02-28T06:49:14.859Z,7.44
2019-02-28T06:51:16.718Z,7.44
2019-02-28T06:53:14.821Z,7.44
2019-02-28T06:55:15.701Z,7.44
2019-02-28T06:56:31.794Z,7.44
2019-02-28T06:57:15.747Z,7.5
2019-02-28T06:59:14.858Z,7.5
2019-02-28T07:01:14.958Z,7.56
2019-02-28T07:03:14.833Z,7.56
2019-02-28T07:05:14.835Z,7.63
2019-02-28T07:07:14.907Z,7.69
2019-02-28T07:09:14.841Z,7.75
2019-02-28T07:11:14.898Z,7.81
2019-02-28T07:11:31.790Z,7.81
2019-02-28T07:13:14.788Z,7.88
2019-02-28T07:15:14.883Z,7.94
2019-02-28T07:17:14.821Z,8
2019-02-28T07:19:15.808Z,8.06
2019-02-28T07:21:15.793Z,8.06
2019-02-28T07:23:14.824Z,8.06
2019-02-28T07:25:14.864Z,8.13
2019-02-28T07:26:31.807Z,8.13
2019-02-28T07:27:14.874Z,8.19
2019-02-28T07:29:14.777Z,8.31
2019-02-28T07:31:14.832Z,8.38
2019-02-28T07:33:14.778Z,8.5
2019-02-28T07:35:14.879Z,8.5
2019-02-28T07:37:18.455Z,8.56
2019-02-28T07:39:14.855Z,8.69
2019-02-28T07:41:14.829Z,8.69
2019-02-28T07:41:31.779Z,8.69
2019-02-28T07:43:14.860Z,8.81
2019-02-28T07:45:15.933Z,8.88
2019-02-28T07:47:17.331Z,8.88
2019-02-28T07:49:14.859Z,9
2019-02-28T07:51:14.849Z,9.06
2019-02-28T07:53:14.837Z,9.19
2019-02-28T07:55:14.850Z,9.25
2019-02-28T07:56:31.796Z,9.25
2019-02-28T07:57:17.129Z,9.31
2019-02-28T07:59:14.922Z,9.38
2019-02-28T08:01:14.882Z,9.44
2019-02-28T08:03:14.807Z,9.5
2019-02-28T08:05:14.840Z,9.56
2019-02-28T08:07:15.707Z,9.63
2019-02-28T08:09:14.846Z,9.63
2019-02-28T08:11:15.830Z,9.63
2019-02-28T08:11:31.773Z,9.63
2019-02-28T08:13:14.851Z,9.63
2019-02-28T08:15:14.844Z,9.63
2019-02-28T08:17:14.857Z,9.56
2019-02-28T08:19:14.779Z,9.56
2019-02-28T08:21:14.787Z,9.63
2019-02-28T08:23:14.756Z,9.63
2019-02-28T08:25:14.829Z,9.69
2019-02-28T08:26:31.962Z,9.69
2019-02-28T08:27:14.859Z,9.69
2019-02-28T08:29:14.867Z,9.81
2019-02-28T08:31:14.855Z,9.81
2019-02-28T08:33:16.243Z,9.88
2019-02-28T08:35:14.877Z,9.94
2019-02-28T08:37:14.835Z,9.94
2019-02-28T08:39:16.106Z,10.06
2019-02-28T08:41:14.873Z,10.06
2019-02-28T08:41:31.758Z,10.06
2019-02-28T08:43:14.823Z,10.13
2019-02-28T08:45:14.830Z,10.25
2019-02-28T08:47:17.769Z,10.25
2019-02-28T08:49:14.790Z,10.31
2019-02-28T08:51:14.791Z,10.31
2019-02-28T08:53:15.355Z,10.38
2019-02-28T08:55:14.880Z,10.38
2019-02-28T08:56:32.231Z,10.44
2019-02-28T08:57:15.811Z,10.44
2019-02-28T08:59:18.140Z,10.44
2019-02-28T09:01:14.856Z,10.5
2019-02-28T09:03:14.823Z,10.56
2019-02-28T09:05:14.865Z,10.56
2019-02-28T09:07:15.265Z,10.56
2019-02-28T09:09:14.867Z,10.56
2019-02-28T09:11:14.868Z,10.63
2019-02-28T09:11:31.739Z,10.63
2019-02-28T09:13:14.875Z,10.63
2019-02-28T09:15:14.874Z,10.63
2019-02-28T09:17:18.505Z,10.69
2019-02-28T09:19:14.860Z,10.69
2019-02-28T09:21:15.370Z,10.69
2019-02-28T09:23:14.862Z,10.75
2019-02-28T09:25:14.842Z,10.75
2019-02-28T09:26:31.923Z,10.81
2019-02-28T09:27:14.825Z,10.81
2019-02-28T09:29:14.815Z,10.81
2019-02-28T09:31:14.907Z,10.88
2019-02-28T09:33:14.862Z,10.94
2019-02-28T09:35:14.779Z,10.94
2019-02-28T09:37:14.877Z,10.94
2019-02-28T09:39:16.292Z,10.94
2019-02-28T09:41:14.827Z,11
2019-02-28T09:41:31.859Z,11
2019-02-28T09:43:14.864Z,10.94
2019-02-28T09:45:14.853Z,11
2019-02-28T09:47:14.804Z,11.06
2019-02-28T09:49:14.835Z,11.06
2019-02-28T09:51:14.842Z,11.06
2019-02-28T09:53:16.427Z,11.06
2019-02-28T09:55:14.782Z,11.06
2019-02-28T09:56:31.787Z,11.06
2019-02-28T09:57:15.353Z,11.06
2019-02-28T09:59:15.820Z,11.06
2019-02-28T10:01:14.844Z,11.13
2019-02-28T10:03:18.536Z,11.06
2019-02-28T10:05:14.784Z,11.13
2019-02-28T10:07:14.799Z,11.13
2019-02-28T10:09:17.672Z,11.19
2019-02-28T10:11:14.806Z,11.19
2019-02-28T10:11:32.678Z,11.19
2019-02-28T10:13:17.638Z,11.19
2019-02-28T10:15:15.005Z,11.25
2019-02-28T10:17:14.824Z,11.25
2019-02-28T10:19:14.836Z,11.25
2019-02-28T10:21:14.850Z,11.31
2019-02-28T10:23:14.892Z,11.25
2019-02-28T10:25:14.878Z,11.25
2019-02-28T10:26:31.843Z,11.31
2019-02-28T10:27:14.785Z,11.31
2019-02-28T10:29:14.851Z,11.25
2019-02-28T10:31:14.841Z,11.19
2019-02-28T10:33:17.170Z,11.19
2019-02-28T10:35:14.864Z,11.31
2019-02-28T10:37:14.841Z,11.38
2019-02-28T10:39:14.834Z,11.44
2019-02-28T10:41:15.413Z,11.5
2019-02-28T10:41:31.679Z,11.44
2019-02-28T10:43:15.414Z,11.5
2019-02-28T10:45:14.846Z,11.56
2019-02-28T10:47:14.851Z,11.69
2019-02-28T10:49:16.847Z,11.56
2019-02-28T10:51:14.872Z,11.63
2019-02-28T10:53:14.840Z,11.63
2019-02-28T10:55:14.823Z,11.56
2019-02-28T10:56:32.673Z,11.56
2019-02-28T10:57:14.877Z,11.56
2019-02-28T10:59:14.835Z,11.69
2019-02-28T11:01:14.840Z,11.81
2019-02-28T11:03:14.804Z,11.81
2019-02-28T11:05:15.295Z,11.88
2019-02-28T11:07:14.834Z,11.88
2019-02-28T11:09:14.765Z,11.94
2019-02-28T11:11:14.828Z,11.94
2019-02-28T11:11:31.817Z,11.94
2019-02-28T11:13:14.836Z,12
2019-02-28T11:15:15.747Z,12.06
2019-02-28T11:17:14.840Z,12.13
2019-02-28T11:19:18.553Z,12.06
2019-02-28T11:21:14.835Z,12.06
2019-02-28T11:23:15.850Z,12.06
2019-02-28T11:25:14.776Z,12.19
2019-02-28T11:26:31.826Z,12.13
2019-02-28T11:27:16.034Z,12.06
2019-02-28T11:29:14.861Z,12
2019-02-28T11:31:16.298Z,12.13
2019-02-28T11:33:14.857Z,12.19
2019-02-28T11:35:14.866Z,12.06
2019-02-28T11:37:14.869Z,12.06
2019-02-28T11:39:14.849Z,11.94
2019-02-28T11:41:15.436Z,11.69
2019-02-28T11:41:31.783Z,11.63
2019-02-28T11:43:14.814Z,11.13
2019-02-28T11:45:14.829Z,11.13
2019-02-28T11:47:14.859Z,11.06
2019-02-28T11:49:14.819Z,10.81
2019-02-28T11:51:17.564Z,10.56
2019-02-28T11:53:14.867Z,10.31
2019-02-28T11:55:16.708Z,10.13
2019-02-28T11:56:31.766Z,9.94
2019-02-28T11:57:14.800Z,9.81
2019-02-28T11:59:14.858Z,9.69
2019-02-28T12:01:14.838Z,9.63
2019-02-28T12:03:14.826Z,9.56
2019-02-28T12:05:15.598Z,9.5
2019-02-28T12:07:14.882Z,9.44
2019-02-28T12:09:16.236Z,9.38
2019-02-28T12:11:14.864Z,9.44
2019-02-28T12:11:33.443Z,9.5
2019-02-28T12:13:16.407Z,9.5
2019-02-28T12:15:15.769Z,9.38
2019-02-28T12:17:15.142Z,9.31
2019-02-28T12:19:15.816Z,9.38
2019-02-28T12:21:14.900Z,9.31
2019-02-28T12:23:15.749Z,9.25
2019-02-28T12:25:14.831Z,9.31
2019-02-28T12:26:31.828Z,9.31
2019-02-28T12:27:15.765Z,9.38
2019-02-28T12:29:14.841Z,9.31
2019-02-28T12:31:14.918Z,9.31
2019-02-28T12:33:15.319Z,9.31
2019-02-28T12:35:14.846Z,9.31
2019-02-28T12:37:15.738Z,9.38
2019-02-28T12:39:14.852Z,9.44
2019-02-28T12:41:15.818Z,9.44
2019-02-28T12:41:31.656Z,9.44
2019-02-28T12:43:14.909Z,9.44
2019-02-28T12:45:14.821Z,9.56
2019-02-28T12:47:14.873Z,9.56
2019-02-28T12:49:15.747Z,9.63
2019-02-28T12:51:14.804Z,9.69
2019-02-28T12:53:15.692Z,9.75
2019-02-28T12:55:14.826Z,9.69
2019-02-28T12:56:31.826Z,9.81
2019-02-28T12:57:14.849Z,9.81
2019-02-28T12:59:14.857Z,9.75
2019-02-28T13:01:14.844Z,9.88
2019-02-28T13:03:19.100Z,9.81
2019-02-28T13:05:15.946Z,9.94
2019-02-28T13:07:14.864Z,9.88
2019-02-28T13:09:16.823Z,9.94
2019-02-28T13:11:14.707Z,9.94
2019-02-28T13:11:31.693Z,9.94
2019-02-28T13:13:14.760Z,9.94
2019-02-28T13:15:14.951Z,10
2019-02-28T13:17:16.115Z,10.06
2019-02-28T13:19:16.335Z,10.13
2019-02-28T13:21:14.883Z,10.13
2019-02-28T13:23:17.025Z,10.38
2019-02-28T13:25:15.710Z,10.44
2019-02-28T13:26:33.596Z,10.5
2019-02-28T13:27:14.829Z,10.56
2019-02-28T13:29:14.877Z,10.63
2019-02-28T13:31:14.998Z,10.69
2019-02-28T13:33:15.188Z,10.75
2019-02-28T13:35:14.878Z,10.81
2019-02-28T13:37:14.899Z,10.69
2019-02-28T13:39:14.857Z,10.63
2019-02-28T13:41:17.113Z,10.69
2019-02-28T13:41:31.778Z,10.63
2019-02-28T13:43:20.530Z,10.63
2019-02-28T13:45:21.524Z,10.63
2019-02-28T13:47:14.828Z,10.69
2019-02-28T13:49:15.519Z,10.63
2019-02-28T13:51:14.832Z,10.63
2019-02-28T13:53:17.644Z,10.69
2019-02-28T13:55:18.801Z,10.69
2019-02-28T13:56:32.885Z,10.69
2019-02-28T13:57:14.868Z,10.63
2019-02-28T13:59:14.868Z,10.81
2019-02-28T14:01:14.833Z,10.81
2019-02-28T14:03:16.940Z,10.94
2019-02-28T14:05:15.108Z,11
2019-02-28T14:07:14.861Z,11.13
2019-02-28T14:09:14.884Z,11.13
2019-02-28T14:11:14.850Z,11.19
2019-02-28T14:11:31.801Z,11.25
2019-02-28T14:13:14.863Z,11.19
2019-02-28T14:15:15.607Z,11.13
2019-02-28T14:17:14.784Z,11.06
2019-02-28T14:19:16.665Z,11
2019-02-28T14:21:14.864Z,11
2019-02-28T14:23:20.016Z,11.13
2019-02-28T14:25:14.814Z,11.19
2019-02-28T14:26:31.868Z,11.19
2019-02-28T14:27:14.834Z,11.13
2019-02-28T14:29:14.781Z,11.19
2019-02-28T14:31:14.849Z,11.25
2019-02-28T14:33:16.043Z,11.25
2019-02-28T14:35:14.823Z,11.25
2019-02-28T14:37:16.782Z,11.19
2019-02-28T14:39:14.841Z,11.19
2019-02-28T14:41:14.783Z,11.19
2019-02-28T14:41:33.111Z,11.19
2019-02-28T14:43:14.791Z,11.13
2019-02-28T14:45:14.833Z,11.19
2019-02-28T14:47:14.855Z,11.13
2019-02-28T14:49:15.471Z,11.13
2019-02-28T14:51:15.027Z,11.19
2019-02-28T14:53:14.830Z,11.19
2019-02-28T14:55:15.880Z,11.19
2019-02-28T14:56:31.798Z,11.13
2019-02-28T14:57:16.591Z,11.19
2019-02-28T14:59:14.809Z,11.25
2019-02-28T15:01:17.693Z,11.25
2019-02-28T15:03:15.036Z,11.25
2019-02-28T15:05:16.591Z,11.31
2019-02-28T15:07:14.787Z,11.38
2019-02-28T15:09:14.822Z,11.38
2019-02-28T15:11:14.859Z,11.44
2019-02-28T15:11:31.786Z,11.44
2019-02-28T15:13:14.837Z,11.38
2019-02-28T15:15:17.901Z,11.38
2019-02-28T15:17:14.863Z,11.38
2019-02-28T15:19:14.877Z,11.44
2019-02-28T15:21:14.884Z,11.38
2019-02-28T15:23:15.719Z,11.31
2019-02-28T15:25:15.221Z,11.25
2019-02-28T15:26:33.111Z,11.25
2019-02-28T15:27:16.254Z,11.25
2019-02-28T15:29:15.837Z,11.13
2019-02-28T15:31:14.831Z,11.06
2019-02-28T15:33:14.821Z,11.13
2019-02-28T15:35:15.185Z,11.06
2019-02-28T15:37:14.816Z,11
2019-02-28T15:39:17.017Z,11
2019-02-28T15:41:14.832Z,11
2019-02-28T15:41:33.660Z,11
2019-02-28T15:43:17.394Z,10.94
2019-02-28T15:45:15.805Z,11
2019-02-28T15:47:15.828Z,11
2019-02-28T15:49:14.860Z,11
2019-02-28T15:51:14.840Z,11
2019-02-28T15:53:15.773Z,10.94
2019-02-28T15:55:14.805Z,10.94
2019-02-28T15:56:31.855Z,10.94
2019-02-28T15:57:14.842Z,10.94
2019-02-28T15:59:15.774Z,10.88
2019-02-28T16:01:14.872Z,10.81
2019-02-28T16:03:16.617Z,10.88
2019-02-28T16:05:14.905Z,10.81
2019-02-28T16:07:14.863Z,10.56
2019-02-28T16:09:14.800Z,10.5
2019-02-28T16:11:15.770Z,10.44
2019-02-28T16:11:31.741Z,10.44
2019-02-28T16:13:14.857Z,10.44
2019-02-28T16:15:14.821Z,10.38
2019-02-28T16:17:14.862Z,10.31
2019-02-28T16:19:14.851Z,10.31
2019-02-28T16:21:14.843Z,10.31
2019-02-28T16:23:14.758Z,10.31
2019-02-28T16:25:15.706Z,10.38
2019-02-28T16:26:31.812Z,10.44
2019-02-28T16:27:14.834Z,10.5
2019-02-28T16:29:20.362Z,10.44
2019-02-28T16:31:14.855Z,10.56
2019-02-28T16:33:14.805Z,10.44
2019-02-28T16:35:15.443Z,10.44
2019-02-28T16:37:14.830Z,10.44
2019-02-28T16:39:16.795Z,10.5
2019-02-28T16:41:14.875Z,10.44
2019-02-28T16:41:33.627Z,10.44
2019-02-28T16:43:17.293Z,10.38
2019-02-28T16:45:14.833Z,10.38
2019-02-28T16:47:14.886Z,10.38
2019-02-28T16:49:14.947Z,10.38
2019-02-28T16:51:14.865Z,10.38
2019-02-28T16:53:16.011Z,10.38
2019-02-28T16:55:14.798Z,10.38
2019-02-28T16:56:31.827Z,10.38
2019-02-28T16:57:14.943Z,10.38
2019-02-28T16:59:14.841Z,10.38
2019-02-28T17:01:17.447Z,10.38
2019-02-28T17:03:15.901Z,10.38
2019-02-28T17:05:14.848Z,10.38
2019-02-28T17:07:14.852Z,10.38
2019-02-28T17:09:14.885Z,10.38
2019-02-28T17:11:18.159Z,10.38
2019-02-28T17:11:31.840Z,10.38
2019-02-28T17:13:14.859Z,10.38
2019-02-28T17:15:14.824Z,10.31
2019-02-28T17:17:14.851Z,10.31
2019-02-28T17:19:14.884Z,10.31
2019-02-28T17:21:17.795Z,10.31
2019-02-28T17:23:14.837Z,10.38
2019-02-28T17:25:14.829Z,10.31
2019-02-28T17:26:31.827Z,10.38
2019-02-28T17:27:14.837Z,10.38
2019-02-28T17:29:14.913Z,10.31
2019-02-28T17:31:14.848Z,10.31
2019-02-28T17:33:14.845Z,10.31
2019-02-28T17:35:14.857Z,10.31
2019-02-28T17:37:14.848Z,10.31
2019-02-28T17:39:15.716Z,10.25
2019-02-28T17:41:14.850Z,10.25
2019-02-28T17:41:33.845Z,10.25
2019-02-28T17:43:14.858Z,10.25
2019-02-28T17:45:16.307Z,10.31
2019-02-28T17:47:14.835Z,10.25
2019-02-28T17:49:14.854Z,10.25
2019-02-28T17:51:17.940Z,10.13
2019-02-28T17:53:14.830Z,10.13
2019-02-28T17:55:14.833Z,10
2019-02-28T17:56:31.832Z,9.94
2019-02-28T17:57:16.440Z,9.94
2019-02-28T17:59:14.852Z,9.81
2019-02-28T18:01:14.836Z,9.75
2019-02-28T18:03:14.854Z,9.69
2019-02-28T18:05:14.857Z,9.69
2019-02-28T18:07:14.804Z,9.69
2019-02-28T18:09:14.853Z,9.56
2019-02-28T18:11:14.854Z,9.44
2019-02-28T18:11:34.043Z,9.38
2019-02-28T18:13:16.135Z,9.25
2019-02-28T18:15:14.721Z,9.19
2019-02-28T18:17:14.829Z,9.13
2019-02-28T18:19:18.065Z,9.13
2019-02-28T18:21:17.184Z,9.25
2019-02-28T18:23:14.873Z,9.25
2019-02-28T18:25:17.146Z,9.31
2019-02-28T18:26:39.021Z,9.31
2019-02-28T18:27:14.827Z,9.31
2019-02-28T18:29:14.860Z,9.25
2019-02-28T18:31:14.850Z,9.38
2019-02-28T18:33:14.873Z,9.25
2019-02-28T18:35:14.821Z,9.25
2019-02-28T18:37:14.869Z,9.19
2019-02-28T18:39:14.870Z,9.19
2019-02-28T18:41:14.890Z,9.06
2019-02-28T18:41:31.805Z,9.13
2019-02-28T18:43:14.865Z,9.06
2019-02-28T18:45:15.564Z,9.13
2019-02-28T18:47:14.873Z,9.06
2019-02-28T18:49:14.848Z,9
2019-02-28T18:51:16.644Z,9
2019-02-28T18:53:14.815Z,9
2019-02-28T18:55:14.857Z,9
2019-02-28T18:56:32.723Z,8.94
2019-02-28T18:57:14.862Z,8.94
2019-02-28T18:59:14.869Z,8.94
2019-02-28T19:01:14.850Z,8.94
2019-02-28T19:03:14.915Z,8.94
2019-02-28T19:05:14.871Z,8.94
2019-02-28T19:07:14.844Z,8.94
2019-02-28T19:09:14.855Z,8.94
2019-02-28T19:11:14.836Z,8.94
2019-02-28T19:11:31.793Z,8.94
2019-02-28T19:13:14.823Z,8.94
2019-02-28T19:15:14.869Z,8.88
2019-02-28T19:17:14.883Z,8.88
2019-02-28T19:19:14.825Z,8.88
2019-02-28T19:21:14.855Z,8.81
2019-02-28T19:23:14.951Z,8.88
2019-02-28T19:25:14.870Z,8.81
2019-02-28T19:26:31.822Z,8.88
2019-02-28T19:27:14.832Z,8.88
2019-02-28T19:29:14.864Z,8.88
2019-02-28T19:31:14.858Z,8.88
2019-02-28T19:33:14.844Z,8.88
2019-02-28T19:35:14.859Z,8.88
2019-02-28T19:37:14.830Z,8.88
2019-02-28T19:39:14.789Z,8.88
2019-02-28T19:41:14.847Z,8.81
2019-02-28T19:41:31.783Z,8.81
2019-02-28T19:43:14.880Z,8.88
2019-02-28T19:45:14.862Z,8.81
2019-02-28T19:47:14.863Z,8.94
2019-02-28T19:49:14.851Z,8.88
2019-02-28T19:51:14.803Z,8.88
2019-02-28T19:53:14.821Z,8.88
2019-02-28T19:55:14.865Z,8.81
2019-02-28T19:56:31.872Z,8.81
2019-02-28T19:57:14.848Z,8.81
2019-02-28T19:59:14.786Z,8.81
2019-02-28T20:01:18.911Z,8.88
2019-02-28T20:03:14.858Z,8.88
2019-02-28T20:05:15.745Z,8.88
2019-02-28T20:07:14.980Z,9
2019-02-28T20:09:14.842Z,8.94
2019-02-28T20:11:14.898Z,8.94
2019-02-28T20:11:32.674Z,8.94
2019-02-28T20:13:14.899Z,8.94
2019-02-28T20:15:14.942Z,8.94
2019-02-28T20:17:14.844Z,8.88
2019-02-28T20:19:14.862Z,8.81
2019-02-28T20:21:14.878Z,8.88
2019-02-28T20:23:14.843Z,8.88
2019-02-28T20:25:14.874Z,8.88
2019-02-28T20:26:31.815Z,8.81
2019-02-28T20:27:14.772Z,8.88
2019-02-28T20:29:14.857Z,8.88
2019-02-28T20:31:14.858Z,8.88
2019-02-28T20:33:14.842Z,8.88
2019-02-28T20:35:14.845Z,8.88
2019-02-28T20:37:14.842Z,8.88
2019-02-28T20:39:14.729Z,8.81
2019-02-28T20:41:14.835Z,8.81
2019-02-28T20:41:31.810Z,8.81
2019-02-28T20:43:14.853Z,8.75
2019-02-28T20:45:14.868Z,8.88
2019-02-28T20:47:14.852Z,8.81
2019-02-28T20:49:14.851Z,8.81
2019-02-28T20:51:15.746Z,8.81
2019-02-28T20:53:14.866Z,8.81
2019-02-28T20:55:14.857Z,8.94
2019-02-28T20:56:32.708Z,8.81
2019-02-28T20:57:14.853Z,8.81
2019-02-28T20:59:14.866Z,8.75
2019-02-28T21:01:14.900Z,8.69
2019-02-28T21:03:14.838Z,8.69
2019-02-28T21:05:14.876Z,8.75
2019-02-28T21:07:14.804Z,8.75
2019-02-28T21:09:14.842Z,8.75
2019-02-28T21:11:15.838Z,8.81
2019-02-28T21:11:32.071Z,8.81
2019-02-28T21:13:14.832Z,8.75
2019-02-28T21:15:15.808Z,8.81
2019-02-28T21:17:14.865Z,8.75
2019-02-28T21:19:15.245Z,8.75
2019-02-28T21:21:14.851Z,8.81
2019-02-28T21:23:14.938Z,8.81
2019-02-28T21:25:14.860Z,8.75
2019-02-28T21:26:31.806Z,8.81
2019-02-28T21:27:14.891Z,8.81
2019-02-28T21:29:14.827Z,8.69
2019-02-28T21:31:14.847Z,8.69
2019-02-28T21:33:14.773Z,8.75
2019-02-28T21:35:14.867Z,8.75
2019-02-28T21:37:14.856Z,8.75
2019-02-28T21:39:14.842Z,8.75
2019-02-28T21:41:14.800Z,8.75
2019-02-28T21:41:31.798Z,8.75
2019-02-28T21:43:14.838Z,8.75
2019-02-28T21:45:14.862Z,8.69
2019-02-28T21:47:14.790Z,8.69
2019-02-28T21:49:14.835Z,8.75
2019-02-28T21:51:14.840Z,8.75
2019-02-28T21:53:14.835Z,8.75
2019-02-28T21:55:15.824Z,8.75
2019-02-28T21:56:31.803Z,8.69
2019-02-28T21:57:14.832Z,8.75
2019-02-28T21:59:14.951Z,8.69
2019-02-28T22:01:14.937Z,8.63
2019-02-28T22:03:14.838Z,8.63
2019-02-28T22:05:14.839Z,8.56
2019-02-28T22:07:15.020Z,8.56
2019-02-28T22:09:14.882Z,8.5
2019-02-28T22:11:14.859Z,8.5
2019-02-28T22:11:31.762Z,8.5
2019-02-28T22:13:14.870Z,8.44
2019-02-28T22:15:14.820Z,8.38
2019-02-28T22:17:14.814Z,8.31
2019-02-28T22:19:14.851Z,8.31
2019-02-28T22:21:14.824Z,8.31
2019-02-28T22:23:14.863Z,8.31
2019-02-28T22:25:14.841Z,8.31
2019-02-28T22:26:34.028Z,8.38
2019-02-28T22:27:14.850Z,8.38
2019-02-28T22:29:14.827Z,8.44
2019-02-28T22:31:14.824Z,8.44
2019-02-28T22:33:14.877Z,8.5
2019-02-28T22:35:14.855Z,8.44
2019-02-28T22:37:14.862Z,8.44
2019-02-28T22:39:14.845Z,8.5
2019-02-28T22:41:14.864Z,8.5
2019-02-28T22:41:31.811Z,8.5
2019-02-28T22:43:14.840Z,8.5
2019-02-28T22:45:14.834Z,8.56
2019-02-28T22:47:14.849Z,8.56
2019-02-28T22:49:14.852Z,8.56
2019-02-28T22:51:14.856Z,8.63
2019-02-28T22:53:14.861Z,8.56
2019-02-28T22:55:14.792Z,8.63
2019-02-28T22:56:31.818Z,8.56
2019-02-28T22:57:14.816Z,8.56
2019-02-28T22:59:14.842Z,8.56
2019-02-28T23:01:14.863Z,8.56
2019-02-28T23:03:14.824Z,8.56
2019-02-28T23:05:14.824Z,8.56
2019-02-28T23:07:14.856Z,8.56
2019-02-28T23:09:14.814Z,8.56
2019-02-28T23:11:14.819Z,8.56
2019-02-28T23:11:32.609Z,8.56
2019-02-28T23:13:14.785Z,8.56
2019-02-28T23:15:14.856Z,8.56
2019-02-28T23:17:14.888Z,8.56
2019-02-28T23:19:14.841Z,8.56
2019-02-28T23:21:14.843Z,8.56
2019-02-28T23:23:14.869Z,8.56